Time;durP1;ratioP1;P1;durP2;ratioP2;P2;SDS_P1;SDS_P2;PMS_P1;PMS_P2;Temp;Humidity;BMP_temperature;BMP_pressure;BME280_temperature;BME280_humidity;BME280_pressure;Samples;Min_cycle;Max_cycle;Signal;HPM_P1;HPM_P2
2024/01/29 00:00:09;;;;;;;0.20;0.20;;;9.30;96.00;;;;;;5006895;28;20034;-80
2024/01/29 00:02:35;;;;;;;0.22;0.22;;;9.30;96.10;;;;;;5006779;28;20285;-81
2024/01/29 00:05:01;;;;;;;0.00;0.00;;;9.30;96.20;;;;;;5006934;28;20029;-80
2024/01/29 00:07:27;;;;;;;0.10;0.10;;;9.30;96.10;;;;;;5007062;28;20470;-81
2024/01/29 00:09:52;;;;;;;0.10;0.10;;;9.10;96.50;;;;;;5007351;28;20030;-81
2024/01/29 00:12:18;;;;;;;0.10;0.10;;;9.20;96.30;;;;;;5002718;28;20028;-80
2024/01/29 00:14:44;;;;;;;0.10;0.10;;;9.20;96.30;;;;;;5007772;28;20138;-80
2024/01/29 00:17:09;;;;;;;0.10;0.10;;;9.30;96.40;;;;;;5006366;28;20739;-81
2024/01/29 00:19:35;;;;;;;0.10;0.10;;;9.30;96.30;;;;;;5007478;28;21038;-80
2024/01/29 00:22:01;;;;;;;0.10;0.10;;;9.30;96.30;;;;;;5014182;28;20052;-81
2024/01/29 00:24:26;;;;;;;0.10;0.10;;;9.30;96.40;;;;;;5014588;28;20116;-80
2024/01/29 00:26:52;;;;;;;0.52;0.52;;;9.20;96.70;;;;;;5008420;28;20028;-79
2024/01/29 00:29:18;;;;;;;0.10;0.10;;;9.30;96.50;;;;;;5010960;28;20088;-80
2024/01/29 00:31:44;;;;;;;0.10;0.10;;;9.40;96.50;;;;;;5005767;28;20026;-80
2024/01/29 00:34:09;;;;;;;0.10;0.10;;;9.20;96.60;;;;;;5016302;28;20044;-79
2024/01/29 00:36:35;;;;;;;0.10;0.10;;;9.20;96.80;;;;;;5008365;28;20037;-79
2024/01/29 00:39:06;;;;;;;0.00;0.00;;;9.20;96.80;;;;;;5007143;28;20105;-79
2024/01/29 00:41:33;;;;;;;0.10;0.10;;;9.30;96.80;;;;;;5006917;28;20120;-78
2024/01/29 00:43:58;;;;;;;0.00;0.00;;;9.20;97.10;;;;;;5011207;28;20068;-78
2024/01/29 00:46:24;;;;;;;0.10;0.10;;;9.10;97.10;;;;;;5009677;28;20029;-79
2024/01/29 00:48:50;;;;;;;0.10;0.10;;;9.10;97.30;;;;;;5006446;28;20034;-79
2024/01/29 00:51:16;;;;;;;0.10;0.10;;;9.30;97.10;;;;;;5008518;28;20609;-81
2024/01/29 00:53:41;;;;;;;0.10;0.10;;;9.10;97.30;;;;;;5013673;28;20834;-81
2024/01/29 00:56:07;;;;;;;0.10;0.10;;;9.00;97.70;;;;;;5009602;28;20037;-81
2024/01/29 00:58:33;;;;;;;0.10;0.10;;;9.00;97.80;;;;;;5015880;28;20034;-80
2024/01/29 01:00:59;;;;;;;0.10;0.10;;;8.80;98.20;;;;;;5010596;28;20034;-80
2024/01/29 01:03:25;;;;;;;0.10;0.10;;;9.10;98.10;;;;;;5011817;28;20038;-80
2024/01/29 01:05:51;;;;;;;0.00;0.00;;;9.10;97.90;;;;;;5008861;28;20030;-78
2024/01/29 01:08:16;;;;;;;0.08;0.08;;;9.10;97.80;;;;;;5009347;28;20498;-79
2024/01/29 01:10:42;;;;;;;0.10;0.10;;;9.20;97.70;;;;;;5007507;28;20026;-77
2024/01/29 01:13:08;;;;;;;0.05;0.05;;;9.10;97.80;;;;;;5011334;28;20034;-79
2024/01/29 01:15:34;;;;;;;0.10;0.10;;;8.90;98.50;;;;;;5009170;28;20033;-78
2024/01/29 01:18:00;;;;;;;0.10;0.10;;;9.00;98.40;;;;;;5011226;28;20030;-79
2024/01/29 01:20:26;;;;;;;0.10;0.10;;;9.00;98.20;;;;;;5007702;28;20133;-79
2024/01/29 01:22:51;;;;;;;0.10;0.10;;;9.10;98.50;;;;;;5018905;28;20101;-79
2024/01/29 01:25:17;;;;;;;0.10;0.10;;;9.00;98.40;;;;;;5016162;28;20056;-77
2024/01/29 01:27:43;;;;;;;0.10;0.10;;;9.00;98.70;;;;;;5016067;28;20030;-80
2024/01/29 01:30:09;;;;;;;0.17;0.17;;;9.00;98.60;;;;;;5009436;28;20050;-79
2024/01/29 01:32:35;;;;;;;0.00;0.00;;;9.00;98.90;;;;;;5019060;28;20032;-79
2024/01/29 01:35:00;;;;;;;0.10;0.10;;;9.10;98.80;;;;;;5007524;28;20104;-79
2024/01/29 01:37:26;;;;;;;0.10;0.10;;;9.00;98.50;;;;;;5014354;28;20116;-79
2024/01/29 01:39:52;;;;;;;0.10;0.10;;;9.00;98.50;;;;;;5007623;28;20041;-80
2024/01/29 01:42:21;;;;;;;0.10;0.10;;;9.20;98.50;;;;;;5011715;28;20635;-80
2024/01/29 01:44:47;;;;;;;0.10;0.10;;;9.10;98.40;;;;;;5012034;28;20029;-80
2024/01/29 01:47:13;;;;;;;0.10;0.10;;;9.00;98.90;;;;;;5012948;28;20045;-80
2024/01/29 01:49:40;;;;;;;0.00;0.00;;;9.10;98.90;;;;;;5008226;28;20033;-80
2024/01/29 01:52:07;;;;;;;0.10;0.10;;;9.20;98.70;;;;;;5005879;28;20037;-80
2024/01/29 01:54:33;;;;;;;0.10;0.10;;;9.10;98.80;;;;;;5007474;28;20094;-79
2024/01/29 01:57:00;;;;;;;0.10;0.10;;;9.10;98.80;;;;;;5004546;28;20906;-79
2024/01/29 01:59:26;;;;;;;0.00;0.00;;;9.10;98.90;;;;;;5008902;28;20033;-80
2024/01/29 02:01:55;;;;;;;1.37;1.30;;;9.10;98.90;;;;;;5009428;28;20742;-80
2024/01/29 02:04:21;;;;;;;0.45;0.45;;;9.10;98.90;;;;;;5007976;28;20044;-80
2024/01/29 02:06:48;;;;;;;0.00;0.00;;;9.10;98.90;;;;;;5012122;28;20025;-80
2024/01/29 02:09:14;;;;;;;0.10;0.10;;;9.00;99.20;;;;;;5009730;28;20032;-80
2024/01/29 02:11:39;;;;;;;0.10;0.10;;;9.00;99.30;;;;;;5003409;28;20029;-80
2024/01/29 02:14:05;;;;;;;0.10;0.10;;;9.00;99.40;;;;;;5008815;28;20046;-81
2024/01/29 02:16:31;;;;;;;0.07;0.07;;;9.00;99.50;;;;;;5009024;28;20048;-81
2024/01/29 02:18:56;;;;;;;0.10;0.10;;;8.90;99.60;;;;;;5008494;28;20034;-81
2024/01/29 02:21:22;;;;;;;0.10;0.10;;;8.90;99.80;;;;;;5008774;28;20026;-81
2024/01/29 02:23:48;;;;;;;0.10;0.10;;;8.90;99.70;;;;;;5011073;28;20037;-81
2024/01/29 02:26:13;;;;;;;0.10;0.10;;;8.90;99.80;;;;;;5016554;28;20021;-81
2024/01/29 02:28:39;;;;;;;0.63;0.63;;;8.90;99.90;;;;;;5014675;28;20048;-81
2024/01/29 02:31:05;;;;;;;0.05;0.05;;;8.80;99.90;;;;;;5008219;28;20120;-81
2024/01/29 02:33:31;;;;;;;0.75;0.75;;;9.00;99.90;;;;;;5006842;28;20030;-81
2024/01/29 02:35:57;;;;;;;0.10;0.10;;;8.80;99.90;;;;;;5013619;28;20108;-81
2024/01/29 02:38:23;;;;;;;0.10;0.10;;;8.90;99.90;;;;;;5009257;28;21131;-81
2024/01/29 02:40:48;;;;;;;0.10;0.10;;;8.80;99.90;;;;;;5007565;28;20034;-80
2024/01/29 02:43:14;;;;;;;0.10;0.10;;;8.80;99.90;;;;;;5009915;28;20050;-80
2024/01/29 02:45:40;;;;;;;0.10;0.10;;;8.90;99.90;;;;;;5009279;28;20384;-80
2024/01/29 02:48:06;;;;;;;0.10;0.10;;;8.90;99.90;;;;;;5008199;28;20111;-80
2024/01/29 02:50:32;;;;;;;0.10;0.10;;;8.80;99.90;;;;;;5002991;28;20114;-80
2024/01/29 02:52:58;;;;;;;0.10;0.10;;;8.80;99.90;;;;;;5007112;28;20108;-81
2024/01/29 02:55:24;;;;;;;0.55;0.55;;;8.80;99.90;;;;;;5007172;28;20041;-81
2024/01/29 02:57:50;;;;;;;0.10;0.10;;;8.70;99.90;;;;;;5007662;28;20044;-80
2024/01/29 03:00:16;;;;;;;0.20;0.20;;;8.80;99.90;;;;;;5009572;28;20034;-81
2024/01/29 03:02:42;;;;;;;0.10;0.10;;;8.90;99.90;;;;;;5007201;28;20449;-80
2024/01/29 03:05:08;;;;;;;0.10;0.10;;;8.90;99.90;;;;;;5007102;28;20038;-81
2024/01/29 03:07:33;;;;;;;0.10;0.10;;;8.80;99.90;;;;;;5007643;28;20033;-80
2024/01/29 03:09:59;;;;;;;0.08;0.08;;;8.90;99.90;;;;;;5007090;28;20268;-80
2024/01/29 03:12:25;;;;;;;0.10;0.10;;;9.00;99.90;;;;;;5003675;28;20034;-81
2024/01/29 03:14:51;;;;;;;0.10;0.10;;;8.70;99.90;;;;;;5006589;28;20026;-81
2024/01/29 03:17:16;;;;;;;0.10;0.10;;;8.90;99.90;;;;;;5006951;28;20113;-81
2024/01/29 03:19:42;;;;;;;0.10;0.10;;;9.10;99.90;;;;;;5007243;28;20083;-80
2024/01/29 03:22:08;;;;;;;0.10;0.10;;;9.10;99.90;;;;;;5013890;28;20034;-81
2024/01/29 03:24:33;;;;;;;0.10;0.10;;;9.00;99.90;;;;;;5009828;28;20037;-81
2024/01/29 03:26:59;;;;;;;0.10;0.10;;;8.90;99.90;;;;;;5006870;28;20026;-80
2024/01/29 03:29:25;;;;;;;0.10;0.10;;;8.70;99.90;;;;;;5010557;28;20532;-79
2024/01/29 03:31:51;;;;;;;0.10;0.10;;;8.60;99.90;;;;;;5010711;28;20041;-80
2024/01/29 03:34:16;;;;;;;0.10;0.10;;;8.60;99.90;;;;;;5018338;28;20037;-79
2024/01/29 03:36:46;;;;;;;0.10;0.10;;;8.70;99.90;;;;;;5013461;28;20723;-80
2024/01/29 03:39:12;;;;;;;0.10;0.10;;;8.50;99.90;;;;;;5009374;28;20617;-80
2024/01/29 03:41:38;;;;;;;0.10;0.10;;;8.50;99.90;;;;;;5009839;28;20034;-80
2024/01/29 03:44:04;;;;;;;0.85;0.82;;;8.50;99.90;;;;;;5013386;28;20379;-79
2024/01/29 03:46:29;;;;;;;0.10;0.10;;;8.70;99.90;;;;;;5011100;28;20030;-80
2024/01/29 03:48:55;;;;;;;0.07;0.07;;;8.80;99.90;;;;;;5008552;28;20033;-80
2024/01/29 03:51:20;;;;;;;0.10;0.10;;;8.90;99.90;;;;;;5007098;28;20030;-79
2024/01/29 03:53:46;;;;;;;0.10;0.10;;;8.80;99.90;;;;;;5009360;28;20040;-79
2024/01/29 03:56:12;;;;;;;0.10;0.10;;;9.00;99.90;;;;;;5006953;28;20029;-80
2024/01/29 03:58:38;;;;;;;0.10;0.10;;;8.90;99.90;;;;;;5005722;28;20509;-79
2024/01/29 04:01:04;;;;;;;0.10;0.10;;;8.80;99.90;;;;;;5007964;28;20053;-80
2024/01/29 04:03:29;;;;;;;0.08;0.08;;;8.90;99.90;;;;;;5007353;28;20073;-79
2024/01/29 04:05:55;;;;;;;0.10;0.10;;;8.80;99.90;;;;;;5008712;28;20022;-80
2024/01/29 04:08:21;;;;;;;0.10;0.10;;;8.80;99.90;;;;;;5007701;28;20108;-79
2024/01/29 04:10:47;;;;;;;0.10;0.10;;;8.60;99.90;;;;;;5008991;28;20030;-78
2024/01/29 04:13:12;;;;;;;0.00;0.00;;;8.70;99.90;;;;;;5008370;28;20045;-80
2024/01/29 04:15:38;;;;;;;0.10;0.10;;;8.60;99.90;;;;;;5007599;28;20640;-78
2024/01/29 04:18:04;;;;;;;0.10;0.10;;;8.50;99.90;;;;;;5007357;28;20041;-79
2024/01/29 04:20:30;;;;;;;0.10;0.10;;;8.70;99.90;;;;;;5004810;28;20105;-79
2024/01/29 04:22:55;;;;;;;0.10;0.10;;;8.70;99.90;;;;;;5009316;28;20037;-79
2024/01/29 04:25:21;;;;;;;0.10;0.10;;;8.60;99.90;;;;;;5014616;28;20052;-81
2024/01/29 04:27:47;;;;;;;0.10;0.10;;;8.70;99.90;;;;;;5022194;28;20654;-80
2024/01/29 04:30:13;;;;;;;0.10;0.10;;;8.60;99.90;;;;;;5016998;28;20026;-80
2024/01/29 04:32:38;;;;;;;0.20;0.20;;;8.70;99.90;;;;;;5009931;28;20026;-80
2024/01/29 04:35:04;;;;;;;0.10;0.10;;;8.70;99.90;;;;;;5015366;28;20056;-80
2024/01/29 04:37:30;;;;;;;0.10;0.10;;;8.80;99.90;;;;;;5015493;28;20104;-79
2024/01/29 04:39:56;;;;;;;0.10;0.10;;;9.00;99.90;;;;;;5009107;28;20033;-80
2024/01/29 04:42:22;;;;;;;0.10;0.10;;;8.90;99.90;;;;;;5009551;28;20022;-82
2024/01/29 04:44:47;;;;;;;0.10;0.10;;;8.80;99.90;;;;;;5010298;28;20033;-81
2024/01/29 04:47:13;;;;;;;0.10;0.10;;;8.80;99.90;;;;;;5013879;28;20029;-82
2024/01/29 04:49:39;;;;;;;0.10;0.10;;;8.80;99.90;;;;;;5007993;28;20029;-83
2024/01/29 04:52:04;;;;;;;0.22;0.22;;;8.70;99.90;;;;;;5009507;28;20030;-82
2024/01/29 04:54:30;;;;;;;0.10;0.10;;;8.60;99.90;;;;;;5011156;28;20029;-82
2024/01/29 04:56:56;;;;;;;0.10;0.10;;;9.00;99.90;;;;;;5015275;28;20038;-81
2024/01/29 04:59:21;;;;;;;0.10;0.10;;;8.70;99.90;;;;;;5010359;28;20044;-81
2024/01/29 05:01:47;;;;;;;0.10;0.10;;;8.80;99.90;;;;;;5011313;28;20208;-79
2024/01/29 05:04:13;;;;;;;0.10;0.10;;;8.90;99.90;;;;;;5009605;28;20049;-79
2024/01/29 05:06:38;;;;;;;0.10;0.10;;;8.70;99.90;;;;;;5009374;28;20037;-78
2024/01/29 05:09:04;;;;;;;0.10;0.10;;;8.90;99.90;;;;;;5010024;28;20025;-80
2024/01/29 05:11:29;;;;;;;0.10;0.10;;;8.90;99.90;;;;;;5006864;28;20029;-78
2024/01/29 05:13:55;;;;;;;0.10;0.10;;;9.00;99.90;;;;;;5014185;28;20115;-78
2024/01/29 05:16:21;;;;;;;0.08;0.08;;;9.00;99.90;;;;;;5009276;28;20149;-77
2024/01/29 05:18:48;;;;;;;0.10;0.10;;;8.90;99.90;;;;;;5008318;28;20041;-76
2024/01/29 05:21:14;;;;;;;0.22;0.22;;;9.20;99.90;;;;;;5008976;28;20029;-76
2024/01/29 05:23:39;;;;;;;0.10;0.10;;;9.10;99.90;;;;;;5011725;28;20802;-76
2024/01/29 05:26:05;;;;;;;0.10;0.10;;;9.20;99.90;;;;;;5016064;28;20107;-76
2024/01/29 05:28:31;;;;;;;0.10;0.10;;;9.10;99.90;;;;;;5009417;28;20034;-75
2024/01/29 05:30:57;;;;;;;0.30;0.30;;;8.90;99.90;;;;;;5013853;28;20280;-75
2024/01/29 05:33:22;;;;;;;0.10;0.10;;;9.10;99.90;;;;;;5008478;28;20044;-75
2024/01/29 05:35:48;;;;;;;0.10;0.10;;;9.10;99.90;;;;;;5009453;28;20034;-76
2024/01/29 05:38:14;;;;;;;0.08;0.08;;;9.10;99.90;;;;;;5009195;28;20030;-76
2024/01/29 05:40:39;;;;;;;0.00;0.00;;;9.10;99.90;;;;;;5008117;28;20592;-75
2024/01/29 05:43:05;;;;;;;0.10;0.10;;;8.90;99.90;;;;;;5009595;28;20149;-75
2024/01/29 05:45:31;;;;;;;0.10;0.10;;;8.80;99.90;;;;;;5009222;28;20026;-74
2024/01/29 05:47:56;;;;;;;0.00;0.00;;;8.80;99.90;;;;;;5008377;28;20094;-76
2024/01/29 05:50:22;;;;;;;0.10;0.10;;;8.80;99.90;;;;;;5007578;28;20022;-76
2024/01/29 05:52:48;;;;;;;0.10;0.10;;;8.60;99.90;;;;;;5005993;28;20088;-77
2024/01/29 05:55:14;;;;;;;0.00;0.00;;;8.50;99.90;;;;;;5008101;28;20557;-77
2024/01/29 05:57:39;;;;;;;0.00;0.00;;;8.50;99.90;;;;;;5006670;28;20041;-77
2024/01/29 06:00:09;;;;;;;0.03;0.03;;;8.50;99.90;;;;;;5008664;28;20460;-77
2024/01/29 06:02:39;;;;;;;0.10;0.10;;;8.50;99.90;;;;;;5003339;28;20064;-77
2024/01/29 06:05:05;;;;;;;0.10;0.10;;;8.60;99.90;;;;;;5007325;28;20130;-77
2024/01/29 06:07:31;;;;;;;0.10;0.10;;;8.70;99.90;;;;;;5007485;28;20029;-77
2024/01/29 06:09:56;;;;;;;0.10;0.10;;;8.80;99.90;;;;;;5007663;28;20038;-77
2024/01/29 06:12:22;;;;;;;0.23;0.23;;;8.80;99.90;;;;;;5006697;28;20036;-77
2024/01/29 06:14:47;;;;;;;0.20;0.20;;;8.80;99.90;;;;;;5019995;28;20188;-77
2024/01/29 06:17:13;;;;;;;0.10;0.10;;;8.70;99.90;;;;;;5016207;28;20041;-77
2024/01/29 06:19:40;;;;;;;0.10;0.10;;;8.70;99.90;;;;;;5010731;28;20034;-77
2024/01/29 06:22:06;;;;;;;0.10;0.10;;;8.70;99.90;;;;;;5007750;28;20048;-76
2024/01/29 06:24:32;;;;;;;0.10;0.10;;;8.70;99.90;;;;;;5008418;28;20034;-78
2024/01/29 06:26:57;;;;;;;0.10;0.10;;;8.70;99.90;;;;;;5012772;28;20069;-78
2024/01/29 06:29:23;;;;;;;0.10;0.10;;;8.80;99.90;;;;;;5009913;28;20516;-77
2024/01/29 06:31:48;;;;;;;0.08;0.08;;;8.90;99.90;;;;;;5008903;28;20524;-77
2024/01/29 06:34:14;;;;;;;0.10;0.10;;;8.90;99.90;;;;;;5009696;28;20037;-77
2024/01/29 06:36:40;;;;;;;0.10;0.10;;;8.90;99.90;;;;;;5006866;28;20029;-77
2024/01/29 06:39:07;;;;;;;0.00;0.00;;;8.90;99.90;;;;;;5011188;28;20854;-76
2024/01/29 06:41:33;;;;;;;0.10;0.10;;;8.90;99.90;;;;;;5007354;28;20060;-76
2024/01/29 06:43:58;;;;;;;0.08;0.08;;;8.80;99.90;;;;;;5010897;28;20058;-77
2024/01/29 06:46:24;;;;;;;0.10;0.10;;;8.80;99.90;;;;;;5007484;28;20477;-79
2024/01/29 06:48:50;;;;;;;0.10;0.10;;;8.80;99.90;;;;;;5015286;28;20782;-79
2024/01/29 06:51:16;;;;;;;0.10;0.10;;;8.80;99.90;;;;;;5007973;28;20025;-78
2024/01/29 06:53:42;;;;;;;0.10;0.10;;;8.70;99.90;;;;;;5011840;28;20579;-79
2024/01/29 06:56:07;;;;;;;0.10;0.10;;;8.70;99.90;;;;;;5007517;28;20495;-79
2024/01/29 06:58:37;;;;;;;0.10;0.10;;;8.60;99.90;;;;;;5007108;28;20038;-81
2024/01/29 07:01:03;;;;;;;0.08;0.08;;;8.60;99.90;;;;;;5009967;28;20487;-79
2024/01/29 07:03:29;;;;;;;0.10;0.10;;;8.80;99.90;;;;;;5009451;28;20520;-79
2024/01/29 07:05:55;;;;;;;0.10;0.10;;;8.80;99.90;;;;;;4999895;28;20038;-78
2024/01/29 07:08:21;;;;;;;0.90;0.63;;;8.70;99.90;;;;;;5009679;28;20907;-79
2024/01/29 07:10:47;;;;;;;0.10;0.10;;;8.60;99.90;;;;;;4997270;28;20129;-77
2024/01/29 07:13:12;;;;;;;0.55;0.55;;;8.60;99.90;;;;;;5005737;28;20040;-77
2024/01/29 07:15:38;;;;;;;0.10;0.10;;;8.70;99.90;;;;;;5001690;28;20041;-78
2024/01/29 07:18:04;;;;;;;0.07;0.07;;;8.80;99.90;;;;;;5006908;28;20091;-78
2024/01/29 07:20:38;;;;;;;0.03;0.03;;;8.70;99.90;;;;;;5007859;28;20033;-78
2024/01/29 07:23:07;;;;;;;0.10;0.10;;;8.90;99.90;;;;;;5013628;28;20935;-78
2024/01/29 07:25:33;;;;;;;0.10;0.10;;;8.70;99.90;;;;;;5010763;28;20021;-78
2024/01/29 07:28:05;;;;;;;0.10;0.10;;;9.00;99.90;;;;;;5010735;28;20026;-78
2024/01/29 07:30:32;;;;;;;0.10;0.10;;;8.90;99.90;;;;;;5009893;28;20072;-78
2024/01/29 07:32:58;;;;;;;0.10;0.10;;;9.00;99.90;;;;;;5012582;28;20816;-78
2024/01/29 07:35:24;;;;;;;0.10;0.10;;;9.00;99.90;;;;;;5006721;28;20042;-77
2024/01/29 07:37:50;;;;;;;0.10;0.10;;;9.10;99.90;;;;;;5005902;28;20712;-78
2024/01/29 07:40:17;;;;;;;0.10;0.10;;;9.10;99.90;;;;;;5008618;28;20085;-77
2024/01/29 07:42:42;;;;;;;1.55;1.45;;;9.20;99.90;;;;;;5009566;28;20042;-78
2024/01/29 07:45:08;;;;;;;0.00;0.00;;;9.30;99.90;;;;;;5008744;28;20030;-78
2024/01/29 07:47:34;;;;;;;0.10;0.10;;;9.60;99.90;;;;;;5018809;28;20039;-77
2024/01/29 07:50:00;;;;;;;0.00;0.00;;;9.70;99.90;;;;;;5007864;28;20034;-78
2024/01/29 07:52:26;;;;;;;0.30;0.30;;;9.70;99.90;;;;;;5017148;28;20059;-78
2024/01/29 07:54:52;;;;;;;0.10;0.10;;;9.70;99.90;;;;;;5011849;28;20727;-77
2024/01/29 07:57:17;;;;;;;0.10;0.10;;;9.70;99.90;;;;;;5006365;28;20072;-78
2024/01/29 07:59:45;;;;;;;0.00;0.00;;;9.70;99.90;;;;;;5007838;28;20057;-78
2024/01/29 08:02:11;;;;;;;0.00;0.00;;;10.10;99.90;;;;;;5016965;28;20061;-77
2024/01/29 08:04:37;;;;;;;0.00;0.00;;;10.40;98.80;;;;;;5010808;28;20076;-78
2024/01/29 08:07:03;;;;;;;0.10;0.10;;;10.60;97.90;;;;;;5013133;28;20058;-77
2024/01/29 08:09:29;;;;;;;0.10;0.10;;;10.70;97.70;;;;;;5014110;28;20097;-78
2024/01/29 08:11:55;;;;;;;0.00;0.00;;;10.80;97.20;;;;;;5008278;28;20029;-78
2024/01/29 08:14:21;;;;;;;0.10;0.10;;;10.90;96.80;;;;;;5008694;28;20026;-79
2024/01/29 08:16:47;;;;;;;0.00;0.00;;;10.70;97.00;;;;;;5013785;28;20080;-78
2024/01/29 08:19:12;;;;;;;0.10;0.10;;;10.90;96.80;;;;;;5013618;28;20359;-78
2024/01/29 08:21:38;;;;;;;0.00;0.00;;;11.20;96.10;;;;;;5013336;28;20034;-78
2024/01/29 08:24:04;;;;;;;0.03;0.03;;;11.30;95.90;;;;;;5013196;28;20037;-77
2024/01/29 08:26:30;;;;;;;0.00;0.00;;;11.20;95.50;;;;;;5011048;28;20052;-78
2024/01/29 08:28:57;;;;;;;0.10;0.10;;;11.30;95.40;;;;;;5011273;28;20042;-77
2024/01/29 08:31:23;;;;;;;0.00;0.00;;;11.30;95.30;;;;;;5009688;28;20022;-78
2024/01/29 08:33:50;;;;;;;0.03;0.03;;;11.20;95.40;;;;;;5010746;28;20038;-78
2024/01/29 08:36:16;;;;;;;0.00;0.00;;;11.40;95.20;;;;;;5010502;28;20026;-77
2024/01/29 08:38:42;;;;;;;0.08;0.08;;;11.60;94.80;;;;;;5011721;28;20033;-78
2024/01/29 08:41:08;;;;;;;0.10;0.10;;;11.80;94.30;;;;;;5015254;28;20029;-77
2024/01/29 08:43:34;;;;;;;0.00;0.00;;;12.00;94.00;;;;;;5014318;28;20129;-78
2024/01/29 08:46:00;;;;;;;0.03;0.03;;;12.20;93.30;;;;;;5016729;28;20927;-78
2024/01/29 08:48:26;;;;;;;0.00;0.00;;;12.30;92.90;;;;;;5015861;28;20026;-78
2024/01/29 08:50:52;;;;;;;0.00;0.00;;;12.50;92.70;;;;;;5015743;28;20052;-77
2024/01/29 08:53:17;;;;;;;0.03;0.03;;;12.80;92.20;;;;;;5010931;28;20033;-77
2024/01/29 08:55:43;;;;;;;0.00;0.00;;;12.90;91.60;;;;;;5018544;28;20042;-78
2024/01/29 08:58:09;;;;;;;0.10;0.10;;;12.90;91.60;;;;;;5014778;28;20053;-77
2024/01/29 09:00:34;;;;;;;0.00;0.00;;;12.80;91.30;;;;;;5016527;28;20025;-77
2024/01/29 09:03:00;;;;;;;0.07;0.07;;;12.90;91.50;;;;;;5009417;28;20064;-78
2024/01/29 09:05:26;;;;;;;0.00;0.00;;;13.20;91.10;;;;;;5009485;28;20076;-78
2024/01/29 09:07:52;;;;;;;0.00;0.00;;;13.10;90.60;;;;;;5009701;28;20025;-78
2024/01/29 09:10:18;;;;;;;0.00;0.00;;;13.40;90.30;;;;;;5011820;28;20030;-77
2024/01/29 09:12:44;;;;;;;0.00;0.00;;;13.60;89.60;;;;;;5005754;28;20040;-78
2024/01/29 09:15:10;;;;;;;0.00;0.00;;;13.60;88.80;;;;;;5016806;28;20025;-78
2024/01/29 09:17:36;;;;;;;0.00;0.00;;;13.50;88.30;;;;;;5012744;28;20033;-77
2024/01/29 09:20:07;;;;;;;0.00;0.00;;;13.70;87.80;;;;;;5012658;28;20680;-78
2024/01/29 09:22:33;;;;;;;0.00;0.00;;;13.70;87.70;;;;;;5012560;28;20025;-79
2024/01/29 09:24:59;;;;;;;0.00;0.00;;;13.60;87.70;;;;;;5011554;28;20060;-78
2024/01/29 09:27:24;;;;;;;0.00;0.00;;;14.10;86.60;;;;;;5009301;28;20030;-78
2024/01/29 09:29:50;;;;;;;0.00;0.00;;;14.10;85.20;;;;;;5010923;28;20108;-78
2024/01/29 09:32:16;;;;;;;0.00;0.00;;;14.00;84.90;;;;;;5008952;28;20149;-78
2024/01/29 09:34:41;;;;;;;0.10;0.10;;;14.20;84.60;;;;;;5010838;28;20030;-78
2024/01/29 09:37:07;;;;;;;0.00;0.00;;;14.10;84.90;;;;;;5010544;28;20036;-78
2024/01/29 09:39:32;;;;;;;0.00;0.00;;;14.10;84.10;;;;;;5009950;28;20034;-78
2024/01/29 09:42:03;;;;;;;0.00;0.00;;;13.90;84.80;;;;;;5009574;28;20088;-78
2024/01/29 09:44:35;;;;;;;0.10;0.10;;;14.00;84.40;;;;;;5009301;28;20041;-78
2024/01/29 09:47:04;;;;;;;0.00;0.00;;;13.90;84.40;;;;;;5017374;28;20029;-77
2024/01/29 09:49:30;;;;;;;0.52;0.52;;;14.10;83.40;;;;;;5015706;28;20014;-77
2024/01/29 09:51:55;;;;;;;0.00;0.00;;;14.10;83.20;;;;;;5017196;28;20037;-77
2024/01/29 09:54:21;;;;;;;0.00;0.00;;;14.20;82.80;;;;;;5010884;28;20216;-77
2024/01/29 09:56:47;;;;;;;0.00;0.00;;;14.30;82.30;;;;;;5013424;28;20060;-78
2024/01/29 09:59:12;;;;;;;0.00;0.00;;;14.30;82.50;;;;;;5008858;28;20033;-78
2024/01/29 10:01:40;;;;;;;0.00;0.00;;;14.30;83.10;;;;;;5011600;28;20034;-78
2024/01/29 10:04:06;;;;;;;0.00;0.00;;;14.20;82.40;;;;;;5008401;28;20053;-78
2024/01/29 10:06:31;;;;;;;0.00;0.00;;;14.20;82.60;;;;;;5008196;28;20511;-78
2024/01/29 10:08:57;;;;;;;0.00;0.00;;;14.20;82.00;;;;;;5008296;28;20763;-78
2024/01/29 10:11:24;;;;;;;0.00;0.00;;;14.20;83.00;;;;;;5004535;28;20120;-77
2024/01/29 10:14:00;;;;;;;0.00;0.00;;;14.30;82.40;;;;;;5014982;28;20037;-77
2024/01/29 10:16:30;;;;;;;0.13;0.13;;;14.30;83.00;;;;;;5009835;28;20104;-77
2024/01/29 10:18:57;;;;;;;0.50;0.50;;;14.10;82.60;;;;;;5008946;28;20025;-79
2024/01/29 10:21:23;;;;;;;0.00;0.00;;;14.20;81.50;;;;;;5008077;28;20033;-78
2024/01/29 10:23:56;;;;;;;0.00;0.00;;;14.30;81.70;;;;;;5012542;28;20033;-78
2024/01/29 10:26:22;;;;;;;0.00;0.00;;;14.30;81.80;;;;;;5012582;28;20518;-78
2024/01/29 10:29:03;;;;;;;1.33;0.28;;;14.10;81.60;;;;;;5008495;28;20029;-78
2024/01/29 10:31:29;;;;;;;0.10;0.10;;;14.20;81.80;;;;;;5010434;28;20412;-82
2024/01/29 10:33:55;;;;;;;0.00;0.00;;;14.20;82.10;;;;;;5009785;28;20116;-82
2024/01/29 10:36:21;;;;;;;0.00;0.00;;;14.00;82.40;;;;;;5007351;28;20261;-78
2024/01/29 10:38:48;;;;;;;0.08;0.08;;;14.20;81.40;;;;;;5008194;28;20041;-78
2024/01/29 10:41:20;;;;;;;0.00;0.00;;;14.30;81.40;;;;;;5008069;28;20599;-78
2024/01/29 10:43:50;;;;;;;0.03;0.03;;;14.40;81.20;;;;;;5006001;28;20062;-78
2024/01/29 10:46:26;;;;;;;0.00;0.00;;;14.30;81.20;;;;;;5013050;28;20022;-78
2024/01/29 10:48:53;;;;;;;0.10;0.10;;;14.30;81.20;;;;;;5012602;28;20636;-78
2024/01/29 10:51:21;;;;;;;0.00;0.00;;;14.40;81.20;;;;;;5012337;28;20026;-77
2024/01/29 10:53:48;;;;;;;0.00;0.00;;;14.50;80.40;;;;;;5008969;28;20037;-78
2024/01/29 10:56:16;;;;;;;0.00;0.00;;;14.50;79.90;;;;;;5007035;28;20025;-78
2024/01/29 10:58:42;;;;;;;0.00;0.00;;;14.60;80.50;;;;;;5010448;28;20037;-77
2024/01/29 11:01:10;;;;;;;0.00;0.00;;;14.60;80.50;;;;;;5010025;28;20061;-77
2024/01/29 11:03:37;;;;;;;0.00;0.00;;;14.60;79.80;;;;;;5012955;28;20029;-78
2024/01/29 11:06:06;;;;;;;0.00;0.00;;;14.70;79.10;;;;;;5007495;28;20034;-77
2024/01/29 11:08:35;;;;;;;0.00;0.00;;;14.80;78.90;;;;;;5007007;28;20402;-77
2024/01/29 11:11:02;;;;;;;0.00;0.00;;;14.60;79.30;;;;;;5004010;28;20026;-78
2024/01/29 11:13:30;;;;;;;0.00;0.00;;;14.60;79.20;;;;;;5010982;28;20631;-78
2024/01/29 11:15:55;;;;;;;0.10;0.10;;;14.60;79.20;;;;;;5010437;28;20025;-78
2024/01/29 11:18:21;;;;;;;0.00;0.00;;;14.60;79.20;;;;;;5010439;28;20111;-77
2024/01/29 11:20:50;;;;;;;0.00;0.00;;;14.50;79.00;;;;;;5005412;28;20044;-77
2024/01/29 11:23:20;;;;;;;0.08;0.08;;;14.50;78.50;;;;;;5009602;28;20634;-77
2024/01/29 11:25:49;;;;;;;0.28;0.28;;;14.60;79.30;;;;;;5006042;28;20026;-78
2024/01/29 11:28:15;;;;;;;0.00;0.00;;;14.60;78.20;;;;;;5006837;28;20030;-77
2024/01/29 11:30:52;;;;;;;0.00;0.00;;;14.70;79.00;;;;;;5008229;28;20128;-78
2024/01/29 11:33:19;;;;;;;0.08;0.08;;;14.70;78.60;;;;;;5007792;28;20026;-77
2024/01/29 11:35:46;;;;;;;0.15;0.15;;;14.60;79.20;;;;;;5000285;28;20041;-77
2024/01/29 11:38:13;;;;;;;0.10;0.10;;;14.60;78.80;;;;;;5007961;28;20832;-78
2024/01/29 11:40:43;;;;;;;0.00;0.00;;;14.60;78.80;;;;;;5006832;28;20437;-77
2024/01/29 11:43:20;;;;;;;0.03;0.03;;;14.50;79.10;;;;;;5007981;28;20050;-77
2024/01/29 11:45:51;;;;;;;0.00;0.00;;;14.50;78.80;;;;;;5011031;28;20825;-79
2024/01/29 11:48:19;;;;;;;0.05;0.05;;;14.60;79.70;;;;;;5012755;28;20508;-78
2024/01/29 11:50:46;;;;;;;0.00;0.00;;;14.50;78.90;;;;;;5017062;28;20053;-78
2024/01/29 11:53:14;;;;;;;0.05;0.05;;;14.50;78.90;;;;;;5007543;28;20040;-77
2024/01/29 11:55:41;;;;;;;0.03;0.03;;;14.50;78.60;;;;;;5010890;28;20033;-77
2024/01/29 11:58:13;;;;;;;0.00;0.00;;;14.50;78.40;;;;;;5005374;28;20033;-77
2024/01/29 12:00:39;;;;;;;0.00;0.00;;;14.50;78.20;;;;;;5005455;28;20573;-78
2024/01/29 12:03:07;;;;;;;0.00;0.00;;;14.60;78.40;;;;;;5009852;28;20069;-78
2024/01/29 12:05:33;;;;;;;0.00;0.00;;;14.60;78.40;;;;;;5004023;28;20034;-78
2024/01/29 12:07:58;;;;;;;0.00;0.00;;;14.60;78.40;;;;;;5019193;28;20033;-78
2024/01/29 12:10:24;;;;;;;0.00;0.00;;;14.70;78.40;;;;;;5001960;28;20404;-78
2024/01/29 12:12:50;;;;;;;0.10;0.10;;;14.70;79.20;;;;;;5003188;28;20068;-78
2024/01/29 12:15:15;;;;;;;0.00;0.00;;;14.70;78.40;;;;;;5009861;28;20049;-77
2024/01/29 12:17:44;;;;;;;0.00;0.00;;;14.70;78.00;;;;;;5009073;28;20056;-77
2024/01/29 12:20:11;;;;;;;0.00;0.00;;;14.70;77.70;;;;;;5012514;28;20589;-77
2024/01/29 12:22:39;;;;;;;0.08;0.08;;;14.70;78.40;;;;;;5011856;28;20472;-77
2024/01/29 12:25:11;;;;;;;0.00;0.00;;;14.70;77.60;;;;;;5011196;28;20042;-77
2024/01/29 12:27:39;;;;;;;0.00;0.00;;;14.90;77.60;;;;;;5006616;28;20528;-77
2024/01/29 12:30:13;;;;;;;0.00;0.00;;;14.80;78.40;;;;;;5007206;28;20148;-77
2024/01/29 12:32:39;;;;;;;0.35;0.35;;;14.90;78.00;;;;;;5000578;28;20058;-77
2024/01/29 12:35:24;;;;;;;0.00;0.00;;;15.00;78.30;;;;;;5006192;28;20058;-76
2024/01/29 12:37:50;;;;;;;0.00;0.00;;;15.00;78.20;;;;;;5007243;28;20044;-77
2024/01/29 12:40:16;;;;;;;0.20;0.20;;;15.00;77.50;;;;;;5021485;28;20077;-77
2024/01/29 12:42:41;;;;;;;1.03;0.67;;;15.00;77.30;;;;;;5012461;28;20607;-77
2024/01/29 12:45:08;;;;;;;0.00;0.00;;;15.00;77.20;;;;;;5007063;28;20049;-76
2024/01/29 12:47:34;;;;;;;;;;;15.00;77.20;;;;;;5020433;28;20029;-76